createdAt,value
2017-07-11T00:00:41.128Z,96252.83
2017-07-11T00:03:06.984Z,96248.88
2017-07-11T00:05:32.989Z,96252.19
2017-07-11T00:07:59.318Z,96243.89
2017-07-11T00:10:25.166Z,96252.34
2017-07-11T00:12:50.996Z,96249.24
2017-07-11T00:15:16.868Z,96256.47
2017-07-11T00:17:42.801Z,96233.06
2017-07-11T00:20:08.698Z,96210.98
2017-07-11T00:22:34.577Z,96243.36
2017-07-11T00:25:00.537Z,96239.83
2017-07-11T00:27:26.404Z,96239.88
2017-07-11T00:29:52.400Z,96242.37
2017-07-11T00:32:18.320Z,96245.00
2017-07-11T00:34:44.195Z,96243.91
2017-07-11T00:37:10.056Z,96243.13
2017-07-11T00:39:35.957Z,96245.13
2017-07-11T00:42:01.857Z,96250.46
2017-07-11T00:44:27.723Z,96248.07
2017-07-11T00:46:53.645Z,96256.66
2017-07-11T00:49:19.505Z,96251.81
2017-07-11T00:51:45.367Z,96249.77
2017-07-11T00:54:11.209Z,96250.16
2017-07-11T00:56:37.151Z,96250.73
2017-07-11T00:59:03.055Z,96250.76
2017-07-11T01:01:28.992Z,96254.23
2017-07-11T01:03:54.827Z,96258.81
2017-07-11T01:06:20.715Z,96259.18
2017-07-11T01:08:46.632Z,96264.88
2017-07-11T01:11:12.476Z,96268.95
2017-07-11T01:13:38.475Z,96251.64
2017-07-11T01:16:04.332Z,96246.59
2017-07-11T01:18:30.168Z,96272.36
2017-07-11T01:20:56.237Z,96280.27
2017-07-11T01:23:22.209Z,96279.84
2017-07-11T01:25:48.050Z,96280.48
2017-07-11T01:28:13.999Z,96283.83
2017-07-11T01:30:39.862Z,96277.34
2017-07-11T01:33:05.724Z,96289.56
2017-07-11T01:35:31.700Z,96281.55
2017-07-11T01:37:57.517Z,96273.19
2017-07-11T01:40:23.361Z,96285.23
2017-07-11T01:42:49.243Z,96279.59
2017-07-11T01:45:15.125Z,96289.35
2017-07-11T01:47:41.037Z,96271.88
2017-07-11T01:50:06.971Z,96292.32
2017-07-11T01:52:32.813Z,96287.44
2017-07-11T01:54:58.706Z,96289.86
2017-07-11T01:57:24.624Z,96295.45
2017-07-11T01:59:50.456Z,96296.09
2017-07-11T02:02:16.359Z,96293.59
2017-07-11T02:04:42.199Z,96294.61
2017-07-11T02:07:08.192Z,96288.46
2017-07-11T02:09:34.218Z,96289.35
2017-07-11T02:12:00.042Z,96294.35
2017-07-11T02:14:26.096Z,96289.94
2017-07-11T02:16:51.997Z,96289.86
2017-07-11T02:19:17.900Z,96290.75
2017-07-11T02:21:43.765Z,96287.78
2017-07-11T02:24:09.692Z,96291.30
2017-07-11T02:26:35.561Z,96291.04
2017-07-11T02:29:01.408Z,96289.59
2017-07-11T02:31:27.325Z,96286.34
2017-07-11T02:33:53.223Z,96295.06
2017-07-11T02:36:19.097Z,96300.45
2017-07-11T02:38:45.000Z,96300.45
2017-07-11T02:41:10.898Z,96299.81
2017-07-11T02:43:36.811Z,96303.70
2017-07-11T02:46:02.641Z,96305.58
2017-07-11T02:48:28.500Z,96301.68
2017-07-11T02:50:54.338Z,96313.59
2017-07-11T02:53:20.161Z,96313.04
2017-07-11T02:55:46.035Z,96316.35
2017-07-11T02:58:11.963Z,96316.44
2017-07-11T03:00:37.809Z,96323.61
2017-07-11T03:03:03.680Z,96327.55
2017-07-11T03:05:29.604Z,96324.58
2017-07-11T03:07:55.457Z,96325.69
2017-07-11T03:10:21.319Z,96325.77
2017-07-11T03:12:47.176Z,96318.51
2017-07-11T03:15:13.172Z,96318.55
2017-07-11T03:17:39.142Z,96324.45
2017-07-11T03:20:04.952Z,96323.89
2017-07-11T03:22:30.775Z,96325.13
2017-07-11T03:24:56.616Z,96329.91
2017-07-11T03:27:29.302Z,96328.53
2017-07-11T03:29:55.142Z,96331.64
2017-07-11T03:32:20.963Z,96327.56
2017-07-11T03:34:46.801Z,96331.97
2017-07-11T03:37:12.605Z,96328.11
2017-07-11T03:39:38.444Z,96351.41
2017-07-11T03:42:04.265Z,96326.41
2017-07-11T03:44:30.102Z,96333.35
2017-07-11T03:46:55.986Z,96333.48
2017-07-11T03:49:21.994Z,96339.23
2017-07-11T03:51:47.813Z,96339.88
2017-07-11T03:54:20.853Z,96340.13
2017-07-11T03:56:46.741Z,96339.66
2017-07-11T03:59:12.553Z,96311.11
2017-07-11T04:01:38.407Z,96311.47
2017-07-11T04:04:04.283Z,96340.51
2017-07-11T04:06:30.095Z,96332.67
2017-07-11T04:08:55.935Z,96342.58
2017-07-11T04:11:21.825Z,96344.23
2017-07-11T04:13:47.689Z,96343.13
2017-07-11T04:16:13.545Z,96349.03
2017-07-11T04:18:39.367Z,96340.89
2017-07-11T04:21:05.198Z,96351.11
2017-07-11T04:23:31.026Z,96348.72
2017-07-11T04:25:57.040Z,96352.95
2017-07-11T04:28:22.878Z,96351.56
2017-07-11T04:30:48.692Z,96349.84
2017-07-11T04:33:14.707Z,96352.89
2017-07-11T04:35:40.517Z,96356.51
2017-07-11T04:38:06.353Z,96355.00
2017-07-11T04:40:32.177Z,96355.71
2017-07-11T04:42:57.968Z,96351.35
2017-07-11T04:45:24.867Z,96362.48
2017-07-11T04:47:50.784Z,96377.09
2017-07-11T04:50:17.649Z,96367.55
2017-07-11T04:52:58.671Z,96360.20
2017-07-11T04:55:24.679Z,96368.73
2017-07-11T04:57:50.490Z,96370.39
2017-07-11T05:00:16.322Z,96377.14
2017-07-11T05:02:42.326Z,96375.48
2017-07-11T05:05:08.121Z,96373.70
2017-07-11T05:07:34.121Z,96369.20
2017-07-11T05:09:59.973Z,96375.19
2017-07-11T05:12:25.829Z,96375.69
2017-07-11T06:36:47.566Z,96399.07
2017-07-11T06:39:13.370Z,96437.76
2017-07-11T06:41:39.174Z,96434.70
2017-07-11T06:44:05.005Z,96436.82
2017-07-11T06:46:31.393Z,96431.67
2017-07-11T06:48:57.247Z,96426.36
2017-07-11T06:51:23.102Z,96438.62
2017-07-11T06:53:48.894Z,96441.84
2017-07-11T06:56:15.075Z,96442.59
2017-07-11T06:58:40.988Z,96450.81
2017-07-11T07:01:07.003Z,96447.06
2017-07-11T07:03:32.846Z,96446.00
2017-07-11T07:05:59.459Z,96444.13
2017-07-11T07:08:25.263Z,96451.00
2017-07-11T07:10:51.105Z,96450.86
2017-07-11T07:13:16.909Z,96463.97
2017-07-11T07:15:42.714Z,96453.13
2017-07-11T07:18:08.660Z,96453.11
2017-07-11T07:20:34.582Z,96461.47
2017-07-11T07:23:00.380Z,96446.41
2017-07-11T07:25:26.247Z,96454.73
2017-07-11T07:27:52.245Z,96456.77
2017-07-11T07:30:18.054Z,96466.10
2017-07-11T07:32:43.902Z,96468.39
2017-07-11T07:35:09.919Z,96480.61
2017-07-11T07:37:35.823Z,96483.66
2017-07-11T07:40:01.670Z,96500.64
2017-07-11T07:42:27.503Z,96510.33
2017-07-11T07:44:53.773Z,96513.70
2017-07-11T07:47:19.624Z,96526.66
2017-07-11T07:49:45.622Z,96539.86
2017-07-11T07:52:11.685Z,96541.11
2017-07-11T07:54:37.599Z,96547.48
2017-07-11T07:57:03.522Z,96538.72
2017-07-11T07:59:29.422Z,96550.50
2017-07-11T08:01:55.324Z,96558.38
2017-07-11T08:04:21.398Z,96556.84
2017-07-11T08:06:47.374Z,96552.39
2017-07-11T08:09:13.197Z,96540.53
2017-07-11T08:11:39.792Z,96539.58
2017-07-11T08:14:05.601Z,96531.13
2017-07-11T08:16:31.465Z,96514.45
2017-07-11T08:18:57.263Z,96525.05
2017-07-11T08:21:23.099Z,96520.08
2017-07-11T08:23:48.943Z,96522.55
2017-07-11T08:26:14.749Z,96520.48
2017-07-11T08:28:40.556Z,96516.11
2017-07-11T08:31:06.383Z,96516.63
2017-07-11T08:33:32.187Z,96525.27
2017-07-11T08:35:58.022Z,96524.80
2017-07-11T08:38:23.850Z,96534.52
2017-07-11T08:40:49.650Z,96533.02
2017-07-11T08:43:15.719Z,96532.33
2017-07-11T08:45:41.698Z,96536.05
2017-07-11T08:48:07.518Z,96536.69
2017-07-11T08:50:33.350Z,96532.06
2017-07-11T08:52:59.150Z,96537.24
2017-07-11T08:55:24.941Z,96543.77
2017-07-11T08:57:50.848Z,96535.56
2017-07-11T09:00:16.745Z,96534.45
2017-07-11T09:02:42.585Z,96543.94
2017-07-11T09:05:08.407Z,96536.05
2017-07-11T09:07:34.336Z,96542.20
2017-07-11T09:10:00.346Z,96541.05
2017-07-11T09:12:27.074Z,96548.06
2017-07-11T09:14:52.895Z,96548.31
2017-07-11T09:17:18.759Z,96533.33
2017-07-11T09:19:44.587Z,96557.33
2017-07-11T09:22:10.435Z,96552.02
2017-07-11T09:24:36.273Z,96554.31
2017-07-11T09:27:02.275Z,96562.00
2017-07-11T09:29:28.206Z,96559.97
2017-07-11T09:31:54.675Z,96555.53
2017-07-11T09:34:20.491Z,96559.96
2017-07-11T09:36:46.335Z,96562.42
2017-07-11T09:39:12.131Z,96563.93
2017-07-11T09:41:38.669Z,96562.30
2017-07-11T09:44:04.480Z,96559.73
2017-07-11T09:46:30.299Z,96561.30
2017-07-11T09:48:56.144Z,96555.01
2017-07-11T09:51:22.194Z,96554.01
2017-07-11T09:53:48.025Z,96561.50
2017-07-11T09:56:13.902Z,96559.05
2017-07-11T09:58:39.834Z,96561.19
2017-07-11T10:01:05.673Z,96570.91
2017-07-11T10:03:31.523Z,96568.59
2017-07-11T10:05:57.421Z,96568.33
2017-07-11T10:08:23.359Z,96566.44
2017-07-11T10:10:49.405Z,96569.45
2017-07-11T10:13:15.372Z,96574.38
2017-07-11T10:15:41.322Z,96567.12
2017-07-11T10:18:07.167Z,96556.95
2017-07-11T10:20:33.029Z,96574.19
2017-07-11T10:22:59.059Z,96567.88
2017-07-11T10:25:24.859Z,96571.78
2017-07-11T10:27:50.696Z,96564.34
2017-07-11T10:30:16.511Z,96564.27
2017-07-11T10:32:42.550Z,96555.59
2017-07-11T10:35:08.460Z,96550.25
2017-07-11T10:37:34.375Z,96527.69
2017-07-11T10:40:00.182Z,96547.64
2017-07-11T10:42:26.258Z,96542.50
2017-07-11T10:44:52.229Z,96543.38
2017-07-11T10:47:18.050Z,96546.72
2017-07-11T10:49:43.863Z,96553.48
2017-07-11T10:52:09.734Z,96546.07
2017-07-11T10:54:35.721Z,96545.77
2017-07-11T10:57:01.558Z,96536.31
2017-07-11T10:59:27.373Z,96545.27
2017-07-11T11:02:08.365Z,96544.77
2017-07-11T11:04:35.088Z,96543.08
2017-07-11T11:07:00.918Z,96517.55
2017-07-11T11:09:26.782Z,96498.80
2017-07-11T11:11:52.608Z,96534.56
2017-07-11T11:14:18.456Z,96530.78
2017-07-11T11:16:44.505Z,96527.59
2017-07-11T11:19:10.415Z,96524.84
2017-07-11T11:21:36.270Z,96529.22
2017-07-11T11:24:02.193Z,96527.74
2017-07-11T11:26:28.012Z,96527.83
2017-07-11T11:28:53.823Z,96532.58
2017-07-11T11:31:19.688Z,96528.09
2017-07-11T11:33:45.524Z,96530.00
2017-07-11T11:36:11.373Z,96532.74
2017-07-11T11:38:37.291Z,96527.72
2017-07-11T11:41:03.123Z,96524.58
2017-07-11T11:43:29.000Z,96530.12
2017-07-11T11:45:54.831Z,96533.66
2017-07-11T11:48:20.856Z,96534.50
2017-07-11T11:50:46.912Z,96533.50
2017-07-11T11:53:12.806Z,96630.48
2017-07-11T11:55:39.501Z,96652.70
2017-07-11T11:58:06.169Z,96666.62
2017-07-11T12:00:32.167Z,96620.25
2017-07-11T12:02:58.265Z,96667.64
2017-07-11T12:05:24.247Z,96663.47
2017-07-11T12:07:50.121Z,96520.58
2017-07-11T12:10:16.098Z,96517.05
2017-07-11T12:12:42.129Z,96511.50
2017-07-11T12:15:09.223Z,96517.96
2017-07-11T12:17:35.148Z,96508.86
2017-07-11T12:20:01.010Z,96505.46
2017-07-11T12:22:27.151Z,96504.78
2017-07-11T12:24:53.050Z,96501.03
2017-07-11T12:27:19.076Z,96509.58
2017-07-11T12:29:45.107Z,96506.56
2017-07-11T12:32:11.193Z,96502.89
2017-07-11T12:34:37.055Z,96506.88
2017-07-11T12:37:02.912Z,96507.31
2017-07-11T12:39:28.812Z,96503.20
2017-07-11T12:41:54.830Z,96502.45
2017-07-11T12:44:20.843Z,96498.23
2017-07-11T12:46:47.654Z,96500.08
2017-07-11T12:49:13.638Z,96492.26
2017-07-11T12:51:39.542Z,96488.78
2017-07-11T12:54:05.634Z,96486.59
2017-07-11T12:56:31.556Z,96459.28
2017-07-11T12:58:57.586Z,96486.41
2017-07-11T13:01:23.635Z,96479.77
2017-07-11T13:03:49.526Z,96489.06
2017-07-11T13:06:15.335Z,96475.58
2017-07-11T13:08:41.285Z,96476.92
2017-07-11T13:11:07.205Z,96483.75
2017-07-11T13:13:33.075Z,96458.83
2017-07-11T13:15:58.927Z,96478.28
2017-07-11T13:18:24.857Z,96480.56
2017-07-11T13:20:50.729Z,96475.67
2017-07-11T13:23:16.784Z,96482.50
2017-07-11T13:25:42.707Z,96482.06
2017-07-11T13:28:08.577Z,96469.07
2017-07-11T13:30:34.393Z,96474.83
2017-07-11T13:33:00.257Z,96475.20
2017-07-11T13:35:26.301Z,96477.89
2017-07-11T13:37:52.313Z,96472.33
2017-07-11T13:40:18.367Z,96470.20
2017-07-11T13:42:44.355Z,96462.42
2017-07-11T13:45:10.379Z,96464.23
2017-07-11T13:47:36.416Z,96454.70
2017-07-11T13:50:02.351Z,96460.30
2017-07-11T13:52:28.225Z,96466.08
2017-07-11T13:54:54.058Z,96465.72
2017-07-11T13:57:19.882Z,96464.68
2017-07-11T13:59:45.738Z,96458.20
2017-07-11T14:02:11.723Z,96461.62
2017-07-11T14:04:37.545Z,96462.61
2017-07-11T14:07:03.360Z,96458.16
2017-07-11T14:09:29.420Z,96456.63
2017-07-11T14:11:55.306Z,96456.02
2017-07-11T14:14:21.135Z,96454.86
2017-07-11T14:16:47.052Z,96411.69
2017-07-11T14:19:12.878Z,96452.78
2017-07-11T14:21:38.923Z,96454.95
2017-07-11T14:24:04.820Z,96449.84
2017-07-11T14:26:30.666Z,96465.84
2017-07-11T14:28:56.527Z,96457.47
2017-07-11T14:31:22.363Z,96462.52
2017-07-11T14:33:48.426Z,96459.95
2017-07-11T14:36:14.410Z,96448.95
2017-07-11T14:38:40.430Z,96453.92
2017-07-11T14:41:06.278Z,96444.83
2017-07-11T14:43:32.186Z,96433.17
2017-07-11T14:45:58.139Z,96420.36
2017-07-11T14:48:24.041Z,96424.13
2017-07-11T14:50:49.990Z,96424.77
2017-07-11T14:53:16.038Z,96425.57
2017-07-11T14:55:48.714Z,96420.13
2017-07-11T14:58:14.868Z,96422.58
2017-07-11T15:00:40.821Z,96278.84
2017-07-11T15:03:06.781Z,96437.56
2017-07-11T15:05:32.616Z,96410.55
2017-07-11T15:07:58.729Z,96417.39
2017-07-11T15:10:24.587Z,96426.31
2017-07-11T15:12:50.541Z,96331.27
2017-07-11T15:15:16.514Z,96410.25
2017-07-11T15:17:42.346Z,96420.45
2017-07-11T15:20:08.356Z,96420.27
2017-07-11T15:22:34.264Z,96413.94
2017-07-11T15:25:00.172Z,96409.11
2017-07-11T15:27:26.033Z,96410.72
2017-07-11T15:29:52.080Z,96410.66
2017-07-11T15:32:18.070Z,96408.09
2017-07-11T15:34:43.972Z,96411.09
2017-07-11T15:37:09.932Z,96404.83
2017-07-11T15:39:35.860Z,96416.92
2017-07-11T15:42:01.741Z,96412.81
2017-07-11T15:44:27.779Z,96404.33
2017-07-11T15:46:53.608Z,96397.05
2017-07-11T15:49:19.609Z,96393.32
2017-07-11T15:51:45.488Z,96398.50
2017-07-11T15:54:11.381Z,96396.45
2017-07-11T15:56:37.202Z,96357.63
2017-07-11T15:59:03.141Z,96393.05
2017-07-11T16:01:29.039Z,96397.45
2017-07-11T16:03:54.849Z,96383.75
2017-07-11T16:06:20.775Z,96311.35
2017-07-11T16:08:46.683Z,96401.25
2017-07-11T16:11:12.626Z,96353.95
2017-07-11T16:13:38.581Z,96398.09
2017-07-11T16:16:04.465Z,96400.27
2017-07-11T16:18:30.473Z,96401.52
2017-07-11T16:20:56.426Z,96381.18
2017-07-11T16:23:22.266Z,96375.58
2017-07-11T16:25:48.166Z,96396.96
2017-07-11T16:28:14.148Z,96396.06
2017-07-11T16:30:40.166Z,96393.03
2017-07-11T16:33:06.300Z,96394.24
2017-07-11T16:35:32.137Z,96387.55
2017-07-11T16:37:57.947Z,96374.02
2017-07-11T16:40:23.826Z,96384.64
2017-07-11T16:42:49.741Z,96386.02
2017-07-11T16:45:15.637Z,96385.58
2017-07-11T16:47:41.544Z,96375.19
2017-07-11T16:50:07.458Z,96384.41
2017-07-11T16:52:33.276Z,96384.89
2017-07-11T16:54:59.144Z,96373.61
2017-07-11T16:57:25.037Z,96401.45
2017-07-11T16:59:51.048Z,96379.33
2017-07-11T17:02:16.967Z,96384.86
2017-07-11T17:04:42.803Z,96383.50
2017-07-11T17:07:08.685Z,96399.89
2017-07-11T17:09:34.545Z,96389.28
2017-07-11T17:12:00.419Z,96401.28
2017-07-11T17:14:26.280Z,96396.78
2017-07-11T17:16:52.138Z,96393.45
2017-07-11T17:19:17.987Z,96389.73
2017-07-11T17:21:43.903Z,96380.49
2017-07-11T17:24:09.730Z,96380.16
2017-07-11T17:26:35.670Z,96386.69
2017-07-11T17:29:01.565Z,96387.28
2017-07-11T17:31:27.388Z,96388.13
2017-07-11T17:33:53.344Z,96376.92
2017-07-11T17:36:19.233Z,96387.66
2017-07-11T17:38:45.058Z,96386.59
2017-07-11T17:41:10.923Z,96361.06
2017-07-11T17:43:36.742Z,96375.08
2017-07-11T17:46:02.572Z,96391.66
2017-07-11T17:48:28.456Z,96383.20
2017-07-11T17:50:54.432Z,96367.00
2017-07-11T17:53:20.263Z,96382.56
2017-07-11T17:55:46.193Z,96388.52
2017-07-11T17:58:12.138Z,96399.03
2017-07-11T18:00:38.121Z,96389.06
2017-07-11T18:03:03.977Z,96393.23
2017-07-11T18:05:29.957Z,96395.22
2017-07-11T18:07:55.793Z,96395.98
2017-07-11T18:10:21.740Z,96393.57
2017-07-11T18:12:47.573Z,96403.86
2017-07-11T18:15:13.473Z,96394.19
2017-07-11T18:17:39.387Z,96393.50
2017-07-11T18:20:05.202Z,96333.27
2017-07-11T18:22:31.048Z,96395.80
2017-07-11T18:24:56.856Z,96399.12
2017-07-11T18:27:22.834Z,96364.46
2017-07-11T18:29:48.758Z,96395.92
2017-07-11T18:32:14.763Z,96399.05
2017-07-11T18:34:40.665Z,96396.73
2017-07-11T18:37:06.545Z,96397.80
2017-07-11T18:39:32.400Z,96394.73
2017-07-11T18:41:58.262Z,96387.70
2017-07-11T18:44:24.309Z,96398.13
2017-07-11T18:46:50.225Z,96401.65
2017-07-11T18:49:16.079Z,96400.27
2017-07-11T18:51:41.921Z,96403.83
2017-07-11T18:54:07.756Z,96404.64
2017-07-11T18:56:33.816Z,96404.69
2017-07-11T18:58:59.816Z,96410.79
2017-07-11T19:01:25.842Z,96406.10
2017-07-11T19:03:51.797Z,96414.82
2017-07-11T19:06:17.729Z,96415.48
2017-07-11T19:08:43.698Z,96416.83
2017-07-11T19:11:09.739Z,96416.26
2017-07-11T19:13:35.751Z,96413.52
2017-07-11T19:16:01.638Z,96407.84
2017-07-11T19:18:27.497Z,96413.41
2017-07-11T19:20:53.427Z,96419.92
2017-07-11T19:23:19.384Z,96421.74
2017-07-11T19:25:45.355Z,96420.27
2017-07-11T19:28:11.197Z,96425.75
2017-07-11T19:30:37.190Z,96426.73
2017-07-11T19:33:03.053Z,96415.32
2017-07-11T19:35:28.914Z,96430.70
2017-07-11T19:37:54.721Z,96439.73
2017-07-11T19:40:20.614Z,96435.38
2017-07-11T19:42:46.565Z,96435.69
2017-07-11T19:45:12.413Z,96441.25
2017-07-11T19:47:38.265Z,96444.98
2017-07-11T19:50:04.170Z,96445.50
2017-07-11T19:52:30.838Z,96424.06
2017-07-11T19:54:56.657Z,96448.17
2017-07-11T19:57:22.470Z,96449.64
2017-07-11T19:59:48.453Z,96442.92
2017-07-11T20:02:14.425Z,96412.17
2017-07-11T20:04:40.469Z,96451.20
2017-07-11T20:07:06.345Z,96446.80
2017-07-11T20:09:32.202Z,96455.45
2017-07-11T20:11:58.170Z,96451.80
2017-07-11T20:14:24.026Z,96446.36
2017-07-11T20:16:49.877Z,96452.92
2017-07-11T20:19:15.855Z,96454.67
2017-07-11T20:21:41.777Z,96449.23
2017-07-11T20:24:07.689Z,96452.15
2017-07-11T20:26:33.572Z,96450.72
2017-07-11T20:28:59.617Z,96454.26
2017-07-11T20:31:25.616Z,96457.98
2017-07-11T20:33:51.451Z,96460.82
2017-07-11T20:36:17.289Z,96459.25
2017-07-11T20:38:43.261Z,96454.45
2017-07-11T20:41:09.178Z,96460.03
2017-07-11T20:43:35.047Z,96465.78
2017-07-11T20:46:00.955Z,96459.38
2017-07-11T20:48:26.817Z,96457.52
2017-07-11T20:50:53.584Z,96451.53
2017-07-11T20:53:19.425Z,96471.06
2017-07-11T20:55:45.262Z,96472.25
2017-07-11T20:58:11.273Z,96471.92
2017-07-11T21:00:37.122Z,96466.46
2017-07-11T21:03:03.157Z,96472.95
2017-07-11T21:05:29.724Z,96476.34
2017-07-11T21:07:55.634Z,96474.66
2017-07-11T21:10:21.576Z,96479.76
2017-07-11T21:12:47.557Z,96481.07
2017-07-11T21:15:13.415Z,96477.09
2017-07-11T21:17:39.317Z,96472.34
2017-07-11T21:20:05.294Z,96473.28
2017-07-11T21:22:31.259Z,96470.41
2017-07-11T21:24:57.128Z,96469.83
2017-07-11T21:27:23.029Z,96468.97
2017-07-11T21:29:48.949Z,96442.20
2017-07-11T21:32:14.838Z,96468.12
2017-07-11T21:34:40.876Z,96464.86
2017-07-11T21:37:06.756Z,96467.36
2017-07-11T21:39:32.663Z,96466.81
2017-07-11T21:41:58.637Z,96467.14
2017-07-11T21:44:24.476Z,96468.12
2017-07-11T21:46:50.392Z,96467.00
2017-07-11T21:49:16.262Z,96465.17
2017-07-11T21:51:42.116Z,96464.06
2017-07-11T21:54:08.002Z,96470.89
2017-07-11T21:56:33.908Z,96462.97
2017-07-11T21:58:59.916Z,96443.89
2017-07-11T22:01:25.870Z,96470.72
2017-07-11T22:03:51.787Z,96464.71
2017-07-11T22:06:17.657Z,96469.89
2017-07-11T22:08:43.510Z,96472.53
2017-07-11T22:11:09.523Z,96475.58
2017-07-11T22:13:35.504Z,96479.61
2017-07-11T22:16:01.350Z,96479.09
2017-07-11T22:18:27.389Z,96473.49
2017-07-11T22:20:53.383Z,96476.20
2017-07-11T22:23:19.223Z,96480.50
2017-07-11T22:25:45.189Z,96483.47
2017-07-11T22:28:11.104Z,96481.50
2017-07-11T22:30:37.125Z,96480.95
2017-07-11T22:33:03.045Z,96474.58
2017-07-11T22:35:28.932Z,96482.48
2017-07-11T22:37:54.966Z,96480.45
2017-07-11T22:40:20.904Z,96484.29
2017-07-11T22:42:46.801Z,96486.03
2017-07-11T22:45:12.637Z,96482.80
2017-07-11T22:47:38.556Z,96477.00
2017-07-11T22:50:04.435Z,96482.27
2017-07-11T22:52:30.275Z,96481.74
2017-07-11T22:54:56.306Z,96483.28
2017-07-11T22:57:22.287Z,96480.39
2017-07-11T22:59:48.138Z,96481.48
2017-07-11T23:02:13.980Z,96479.06
2017-07-11T23:04:39.948Z,96472.16
2017-07-11T23:07:05.781Z,96478.73
2017-07-11T23:09:31.619Z,96476.53
2017-07-11T23:11:57.594Z,96471.09
2017-07-11T23:14:23.493Z,96473.47
2017-07-11T23:16:49.408Z,96467.15
2017-07-11T23:19:15.247Z,96456.45
2017-07-11T23:21:41.210Z,96466.13
2017-07-11T23:24:07.072Z,96443.97
2017-07-11T23:26:32.913Z,96453.26
2017-07-11T23:28:58.806Z,96422.42
2017-07-11T23:31:24.826Z,96453.26
2017-07-11T23:33:50.809Z,96450.20
2017-07-11T23:36:16.665Z,96449.91
2017-07-11T23:38:42.614Z,96448.68
2017-07-11T23:41:08.547Z,96448.68
2017-07-11T23:43:34.502Z,96435.16
2017-07-11T23:46:00.609Z,96440.50
2017-07-11T23:48:26.485Z,96440.75
2017-07-11T23:50:52.319Z,96417.92
2017-07-11T23:53:18.198Z,96435.16
2017-07-11T23:55:44.057Z,96429.68
2017-07-11T23:58:10.856Z,96437.44
